Accueil
METAR-TAF:

METAR-TAF

Aéroports :

Pago Pago, Îles mineures éloignées des États-Unis

Aéroport de Pago Pago

latitude: 14-20S, longitude: 170-43W, altitude: 3 m

Observation

Le bulletin a été fait il y a 33 minutes, à 22:00 UTC
Vent 12 kt de est/sud-est
Température 30°C
Humidité 84%
Pression 1016 hPa
Visibilité: 19.3 km
Nuages épars à une hauteur de 1800 ft
Nuages épars à une hauteur de 10000 ft

METAR: NSTU 232200Z 11012KT 12SM SCT018 SCT100 30/27 A3001 RMK SLP164 T03010271

Heure: 11:33 (22:33 UTC)

Prévision

Le bulletin a été fait il y a 4 heures et 46 minutes, à 17:47 UTC
Prévision valable du 23 à 18 UTC au 24 à 18 UTC
Vent 14 kt de est/sud-est
Visibilité: 10 km
Quelques nuages à une hauteur de 1700 ft
Nuages épars à une hauteur de 4000 ft
Nuages fragmentés à une hauteur de 10000 ft
averses à proximité

TAF: NSTU 231747Z 2318/2418 12014KT P6SM VCSH FEW017 SCT040 BKN100

Observations et prévisions météorologiques de plus de 4000 aéroports (messages METAR et TAF).

Les stations disponibles sont représentées par des disques jaunes et rouges sur la carte.

Passer la souris dessus pour voir le nom de la station.

Cliquer dessus pour voir les observations et prévisions météorologiques.

Pour changer de carte: cliquez sur les boutons verts avec une croix noire pour zoomer, sur le bouton vert avec un tiret pour effectuer un zoom arrière, ou sur les flèches vertes pour les cartes adjacentes.


METAR-TAF: